TimeCST,TemperatureF,Dew PointF,Humidity,Sea Level PressureIn,VisibilityMPH,Wind Direction,Wind SpeedMPH,Gust SpeedMPH,PrecipitationIn,Events,Conditions,WindDirDegrees,DateUTC
12:53 AM,44.1,34.0,68,30.17,10.0,NNW,8.1,-,N/A,,Clear,340,2011-01-02 06:53:00
1:53 AM,41.0,34.0,76,30.19,10.0,NNW,5.8,-,N/A,,Clear,340,2011-01-02 07:53:00
2:53 AM,39.9,33.1,77,30.20,10.0,NNW,6.9,-,N/A,,Clear,330,2011-01-02 08:53:00
3:53 AM,39.0,32.0,76,30.22,10.0,NNW,8.1,-,N/A,,Clear,340,2011-01-02 09:53:00
4:53 AM,37.0,30.0,76,30.24,10.0,NNW,5.8,-,N/A,,Clear,330,2011-01-02 10:53:00
5:53 AM,36.0,27.0,70,30.26,10.0,NNW,6.9,-,N/A,,Clear,340,2011-01-02 11:53:00
6:53 AM,35.1,26.1,70,30.30,10.0,NNW,8.1,-,N/A,,Clear,340,2011-01-02 12:53:00
7:53 AM,36.0,25.0,64,30.33,10.0,North,10.4,-,N/A,,Clear,350,2011-01-02 13:53:00
9:53 AM,43.0,19.9,40,30.36,10.0,North,11.5,-,N/A,,Clear,10,2011-01-02 15:53:00
10:53 AM,46.0,23.0,40,30.37,10.0,North,9.2,-,N/A,,Clear,360,2011-01-02 16:53:00
11:53 AM,48.9,24.1,38,30.34,10.0,North,9.2,-,N/A,,Clear,350,2011-01-02 17:53:00
12:53 PM,48.9,21.0,33,30.32,10.0,NW,12.7,-,N/A,,Clear,320,2011-01-02 18:53:00
2:53 PM,51.1,18.0,27,30.29,10.0,North,11.5,-,N/A,,Clear,10,2011-01-02 20:53:00
3:53 PM,51.1,19.0,28,30.29,10.0,North,9.2,-,N/A,,Clear,10,2011-01-02 21:53:00
4:53 PM,46.9,19.9,34,30.30,10.0,North,6.9,-,N/A,,Clear,10,2011-01-02 22:53:00
5:53 PM,44.1,21.9,42,30.31,10.0,North,4.6,-,N/A,,Clear,350,2011-01-02 23:53:00
6:53 PM,39.9,25.0,55,30.32,10.0,North,3.5,-,N/A,,Clear,350,2011-01-03 00:53:00
7:53 PM,35.1,27.0,72,30.33,10.0,Calm,Calm,-,N/A,,Clear,0,2011-01-03 01:53:00
8:53 PM,33.1,27.0,78,30.34,10.0,Calm,Calm,-,N/A,,Clear,0,2011-01-03 02:53:00
9:53 PM,32.0,27.0,82,30.34,10.0,Calm,Calm,-,N/A,,Clear,0,2011-01-03 03:53:00
10:53 PM,30.0,27.0,88,30.35,10.0,Calm,Calm,-,N/A,,Clear,0,2011-01-03 04:53:00
11:53 PM,28.9,26.1,89,30.34,10.0,Calm,Calm,-,N/A,,Clear,0,2011-01-03 05:53:00